Time;durP1;ratioP1;P1;durP2;ratioP2;P2;SDS_P1;SDS_P2;PMS_P1;PMS_P2;Temp;Humidity;BMP_temperature;BMP_pressure;BME280_temperature;BME280_humidity;BME280_pressure;Samples;Min_cycle;Max_cycle;Signal;HPM_P1;HPM_P2
2022/08/21 00:01:19;;;;;;;4.28;3.72;;;;;;;19.88;80.49;94370.81;5095268;28;20184;-70
2022/08/21 00:03:48;;;;;;;6.38;3.88;;;;;;;19.89;80.01;94371.63;5093980;28;20203;-70
2022/08/21 00:06:15;;;;;;;5.43;4.40;;;;;;;19.88;80.04;94370.81;5094616;28;20227;-70
2022/08/21 00:08:43;;;;;;;5.72;4.47;;;;;;;19.85;80.39;94363.28;5077263;28;20192;-70
2022/08/21 00:11:10;;;;;;;7.28;4.60;;;;;;;19.78;81.06;94371.03;5094740;28;20204;-70
2022/08/21 00:13:39;;;;;;;6.57;4.60;;;;;;;19.73;80.82;94365.94;5094722;28;20196;-70
2022/08/21 00:16:09;;;;;;;7.50;5.22;;;;;;;19.79;81.49;94369.81;5094858;28;20181;-70
2022/08/21 00:18:36;;;;;;;5.55;4.93;;;;;;;19.81;80.89;94359.00;5094247;28;20235;-70
2022/08/21 00:21:05;;;;;;;6.53;4.97;;;;;;;19.85;79.81;94356.91;5095154;28;20490;-70
2022/08/21 00:23:31;;;;;;;5.35;4.75;;;;;;;19.87;79.16;94355.25;5094910;28;20180;-70
2022/08/21 00:25:59;;;;;;;6.30;4.57;;;;;;;19.90;79.14;94340.41;5093964;28;20219;-70
2022/08/21 00:28:25;;;;;;;6.30;4.55;;;;;;;19.91;79.38;94344.00;5094144;28;20209;-70
2022/08/21 00:30:52;;;;;;;5.32;4.82;;;;;;;19.86;79.95;94334.09;5095049;28;20201;-70
2022/08/21 00:33:20;;;;;;;6.85;4.85;;;;;;;19.84;80.15;94344.94;5094477;28;20269;-70
2022/08/21 00:35:47;;;;;;;6.30;4.88;;;;;;;19.86;80.93;94352.88;5094835;28;20207;-70
2022/08/21 00:38:18;;;;;;;5.28;4.78;;;;;;;19.87;81.39;94352.47;5095342;28;20181;-70
2022/08/21 00:40:48;;;;;;;7.82;5.07;;;;;;;19.84;81.65;94347.72;5094220;28;20211;-70
2022/08/21 00:43:18;;;;;;;6.57;5.10;;;;;;;19.84;81.83;94347.72;5095004;28;20199;-70
2022/08/21 00:45:47;;;;;;;7.38;4.65;;;;;;;19.84;81.63;94346.94;5094799;28;20240;-70
2022/08/21 00:48:14;;;;;;;5.05;4.53;;;;;;;19.81;81.61;94351.38;5094546;28;20200;-70
2022/08/21 00:50:44;;;;;;;6.05;4.55;;;;;;;19.79;80.98;94350.22;5094564;28;20192;-71
2022/08/21 00:53:12;;;;;;;6.13;4.15;;;;;;;19.79;80.96;94355.81;5093813;28;20205;-71
2022/08/21 00:55:40;;;;;;;7.22;5.60;;;;;;;19.76;80.45;94363.09;5094806;28;20192;-71
2022/08/21 00:58:09;;;;;;;6.28;5.65;;;;;;;19.69;80.75;94358.41;5093778;28;20623;-71
2022/08/21 01:00:39;;;;;;;6.57;5.75;;;;;;;19.62;81.28;94352.94;5094517;28;20219;-71
2022/08/21 01:03:10;;;;;;;8.93;6.60;;;;;;;19.57;81.90;94345.03;5098398;28;20204;-71
2022/08/21 01:05:40;;;;;;;8.43;6.32;;;;;;;19.57;81.82;94344.22;5097459;28;20189;-72
2022/08/21 01:08:09;;;;;;;7.28;6.35;;;;;;;19.55;81.96;94346.69;5097549;28;20189;-71
2022/08/21 01:10:40;;;;;;;6.30;5.68;;;;;;;19.55;82.28;94347.47;5098283;28;20243;-72
2022/08/21 01:13:12;;;;;;;6.60;6.00;;;;;;;19.56;81.61;94337.84;5098394;28;20219;-71
2022/08/21 01:15:42;;;;;;;6.57;5.68;;;;;;;19.56;81.68;94337.06;5097884;28;20643;-70
2022/08/21 01:18:12;;;;;;;6.45;5.70;;;;;;;19.58;81.61;94326.25;5098067;28;20204;-69
2022/08/21 01:20:43;;;;;;;6.50;5.50;;;;;;;19.58;81.40;94317.84;5097608;28;20188;-68
2022/08/21 01:23:12;;;;;;;5.93;5.32;;;;;;;19.55;81.96;94325.09;5097652;28;20192;-69
2022/08/21 01:25:40;;;;;;;7.90;6.53;;;;;;;19.55;81.99;94324.31;5080015;28;20245;-69
2022/08/21 01:28:14;;;;;;;7.00;6.40;;;;;;;19.55;81.53;94333.47;5097536;28;20184;-69
2022/08/21 01:30:43;;;;;;;6.18;5.68;;;;;;;19.58;81.32;94324.22;5097914;28;20210;-69
2022/08/21 01:33:10;;;;;;;6.10;4.72;;;;;;;19.59;80.66;94320.22;5097858;28;20208;-68
2022/08/21 01:35:40;;;;;;;5.45;4.95;;;;;;;19.53;80.82;94316.31;5096841;28;20207;-68
2022/08/21 01:38:07;;;;;;;5.22;4.68;;;;;;;19.45;81.33;94318.47;5097718;28;20498;-68
2022/08/21 01:40:35;;;;;;;6.45;4.43;;;;;;;19.50;81.52;94333.97;5097882;28;20218;-68
2022/08/21 01:43:02;;;;;;;7.47;4.32;;;;;;;19.52;81.43;94325.16;5097378;28;20195;-68
2022/08/21 01:45:29;;;;;;;4.53;4.00;;;;;;;19.54;80.88;94334.69;5096310;28;20275;-68
2022/08/21 01:47:56;;;;;;;5.28;4.85;;;;;;;19.55;80.94;94327.09;5096251;28;20205;-68
2022/08/21 01:50:23;;;;;;;5.45;5.05;;;;;;;19.55;81.24;94329.91;5097570;28;20184;-68
2022/08/21 01:52:51;;;;;;;8.50;5.80;;;;;;;19.56;81.17;94331.47;5096455;28;20215;-69
2022/08/21 01:55:19;;;;;;;5.60;4.88;;;;;;;19.54;81.17;94323.50;5097413;28;20242;-68
2022/08/21 01:57:48;;;;;;;6.32;4.53;;;;;;;19.54;80.33;94322.72;5096358;28;20239;-68
2022/08/21 02:00:17;;;;;;;6.80;5.28;;;;;;;19.49;80.21;94333.16;5097061;28;20204;-68
2022/08/21 02:02:44;;;;;;;7.47;4.65;;;;;;;19.46;80.82;94339.66;5097363;28;20187;-68
2022/08/21 02:05:16;;;;;;;8.18;5.70;;;;;;;19.47;81.03;94340.44;5097176;28;20195;-68
2022/08/21 02:07:46;;;;;;;5.68;5.00;;;;;;;19.46;80.90;94338.84;5096333;28;20196;-69
2022/08/21 02:10:18;;;;;;;6.85;5.72;;;;;;;19.45;80.85;94342.84;5096903;28;20201;-67
2022/08/21 02:12:45;;;;;;;7.30;5.53;;;;;;;19.44;81.17;94344.06;5096784;28;20208;-68
2022/08/21 02:15:13;;;;;;;6.95;6.00;;;;;;;19.41;81.33;94342.91;5096243;28;20597;-68
2022/08/21 02:17:43;;;;;;;6.97;6.30;;;;;;;19.38;81.20;94345.78;5096958;28;20195;-69
2022/08/21 02:20:15;;;;;;;8.32;6.90;;;;;;;19.35;81.44;94339.03;5095932;28;20200;-69
2022/08/21 02:22:42;;;;;;;8.25;7.40;;;;;;;19.35;81.56;94347.41;5096149;28;20184;-69
2022/08/21 02:25:10;;;;;;;8.68;7.10;;;;;;;19.37;81.51;94345.00;5095952;28;20606;-68
2022/08/21 02:27:40;;;;;;;8.63;6.40;;;;;;;19.38;81.62;94348.56;5096514;28;20191;-69
2022/08/21 02:30:08;;;;;;;8.10;7.35;;;;;;;19.34;81.31;94350.66;5096756;28;20250;-69
2022/08/21 02:32:37;;;;;;;7.95;7.25;;;;;;;19.26;81.60;94352.78;5096273;28;20581;-69
2022/08/21 02:35:04;;;;;;;7.20;6.50;;;;;;;19.26;82.00;94350.00;5096410;28;20185;-69
2022/08/21 02:37:31;;;;;;;7.97;6.95;;;;;;;19.21;81.90;94351.28;5096723;28;20189;-69
2022/08/21 02:39:58;;;;;;;7.72;6.78;;;;;;;19.25;81.57;94351.22;5095184;28;20208;-69
2022/08/21 02:42:25;;;;;;;8.23;6.70;;;;;;;19.26;81.12;94358.38;5096542;28;20180;-69
2022/08/21 02:44:52;;;;;;;7.45;6.75;;;;;;;19.26;81.34;94357.59;5096051;28;20236;-69
2022/08/21 02:47:20;;;;;;;7.80;6.90;;;;;;;19.21;81.26;94361.66;5095707;28;20552;-69
2022/08/21 02:49:49;;;;;;;8.15;7.30;;;;;;;19.21;81.20;94350.50;5096027;28;20196;-69
2022/08/21 02:52:16;;;;;;;8.05;7.10;;;;;;;19.24;81.38;94346.81;5096142;28;20208;-69
2022/08/21 02:54:43;;;;;;;8.25;6.65;;;;;;;19.23;81.48;94345.25;5096468;28;20181;-68
2022/08/21 02:57:10;;;;;;;7.57;6.88;;;;;;;19.23;81.27;94343.22;5095487;28;20196;-68
2022/08/21 02:59:40;;;;;;;8.10;7.32;;;;;;;19.24;81.27;94344.84;5096150;28;20193;-68
2022/08/21 03:02:07;;;;;;;8.35;7.53;;;;;;;19.26;81.51;94349.19;5095830;28;20199;-68
2022/08/21 03:04:34;;;;;;;8.55;7.65;;;;;;;19.26;81.25;94357.59;5096058;28;20199;-68
2022/08/21 03:07:03;;;;;;;8.43;7.57;;;;;;;19.28;81.82;94357.94;5096046;28;20200;-68
2022/08/21 03:09:29;;;;;;;8.07;7.28;;;;;;;19.29;81.30;94354.72;5095668;28;20196;-67
2022/08/21 03:11:57;;;;;;;8.07;7.28;;;;;;;19.30;81.87;94353.50;5095574;28;20613;-67
2022/08/21 03:14:26;;;;;;;7.97;6.93;;;;;;;19.27;82.36;94345.97;5095801;28;20299;-67
2022/08/21 03:16:53;;;;;;;8.57;7.40;;;;;;;19.26;82.45;94350.00;5095811;28;20188;-67
2022/08/21 03:19:20;;;;;;;8.40;7.60;;;;;;;19.28;82.52;94350.38;5095497;28;20600;-67
2022/08/21 03:21:47;;;;;;;9.05;7.90;;;;;;;19.30;82.62;94352.72;5095716;28;20206;-68
2022/08/21 03:24:15;;;;;;;8.48;7.25;;;;;;;19.31;82.63;94357.09;5095252;28;20193;-68
2022/08/21 03:26:42;;;;;;;8.68;7.88;;;;;;;19.28;82.37;94355.97;5095354;28;20196;-68
2022/08/21 03:29:09;;;;;;;8.77;7.18;;;;;;;19.26;81.53;94358.38;5095058;28;20196;-68
2022/08/21 03:31:37;;;;;;;8.35;7.53;;;;;;;19.29;82.21;94346.34;5095400;28;20220;-68
2022/08/21 03:34:04;;;;;;;8.13;7.32;;;;;;;19.32;81.95;94341.88;5095255;28;20220;-68
2022/08/21 03:36:31;;;;;;;8.77;7.65;;;;;;;19.30;82.09;94347.13;5095174;28;20200;-69
2022/08/21 03:38:57;;;;;;;9.45;7.47;;;;;;;19.30;81.73;94344.34;5095539;28;20211;-68
2022/08/21 03:41:26;;;;;;;10.35;7.75;;;;;;;19.28;81.86;94341.97;5095587;28;20181;-69
2022/08/21 03:43:54;;;;;;;8.05;7.25;;;;;;;19.26;81.64;94344.41;5095243;28;20192;-69
2022/08/21 03:46:20;;;;;;;8.88;7.97;;;;;;;19.28;82.07;94349.53;5095472;28;20189;-68
2022/08/21 03:48:47;;;;;;;8.38;7.57;;;;;;;19.27;82.15;94350.78;5094609;28;20199;-68
2022/08/21 03:51:15;;;;;;;9.15;8.25;;;;;;;19.27;82.28;94359.94;5095338;28;20189;-68
2022/08/21 03:53:43;;;;;;;9.38;8.40;;;;;;;19.29;82.51;94354.72;5094303;28;20608;-68
2022/08/21 03:56:09;;;;;;;9.27;8.27;;;;;;;19.29;82.66;94359.53;5094372;28;20196;-68
2022/08/21 03:58:40;;;;;;;10.10;9.10;;;;;;;19.31;82.85;94357.88;5094871;28;20208;-69
2022/08/21 04:01:07;;;;;;;10.25;9.15;;;;;;;19.32;82.54;94356.69;5095148;28;20184;-68
2022/08/21 04:03:36;;;;;;;11.38;9.43;;;;;;;19.30;82.71;94363.91;5095264;28;20203;-68
2022/08/21 04:06:03;;;;;;;9.48;8.43;;;;;;;19.29;82.57;94365.91;5094429;28;20643;-68
2022/08/21 04:08:31;;;;;;;10.55;8.95;;;;;;;19.31;82.43;94362.69;5094494;28;20204;-68
2022/08/21 04:10:58;;;;;;;10.15;9.07;;;;;;;19.31;82.08;94368.28;5095016;28;20181;-68
2022/08/21 04:13:26;;;;;;;12.70;10.25;;;;;;;19.33;82.49;94371.44;5095154;28;20265;-68
2022/08/21 04:15:58;;;;;;;11.50;10.23;;;;;;;19.31;82.16;94371.84;5093821;28;20204;-68
2022/08/21 04:18:25;;;;;;;14.13;11.73;;;;;;;19.30;82.38;94373.06;5094301;28;20203;-68
2022/08/21 04:20:53;;;;;;;17.10;12.23;;;;;;;19.26;82.28;94369.56;5094424;28;20188;-68
2022/08/21 04:23:22;;;;;;;15.10;12.35;;;;;;;19.23;81.77;94368.41;5094965;28;20202;-69
2022/08/21 04:25:49;;;;;;;13.82;12.23;;;;;;;19.20;82.35;94363.66;5094961;28;20185;-69
2022/08/21 04:28:16;;;;;;;13.68;11.25;;;;;;;19.19;82.33;94366.88;5095145;28;20188;-69
2022/08/21 04:30:44;;;;;;;11.38;10.02;;;;;;;19.18;82.28;94368.91;5094347;28;20204;-68
2022/08/21 04:33:12;;;;;;;13.05;10.68;;;;;;;19.17;82.66;94370.13;5094970;28;20205;-68
2022/08/21 04:35:41;;;;;;;11.27;10.13;;;;;;;19.17;82.35;94372.91;5096595;28;20210;-69
2022/08/21 04:38:08;;;;;;;11.20;10.05;;;;;;;19.18;82.76;94371.69;5098581;28;20587;-69
2022/08/21 04:40:35;;;;;;;12.32;9.88;;;;;;;19.20;82.85;94368.47;5098816;28;20203;-68
2022/08/21 04:43:05;;;;;;;11.18;9.63;;;;;;;19.23;82.54;94370.41;5098832;28;20193;-68
2022/08/21 04:45:37;;;;;;;10.90;9.80;;;;;;;19.23;82.71;94365.59;5098584;28;20243;-68
2022/08/21 04:48:06;;;;;;;11.18;8.82;;;;;;;19.22;82.82;94364.03;5098744;28;20185;-68
2022/08/21 04:50:40;;;;;;;10.70;9.57;;;;;;;19.21;82.57;94368.03;5098822;28;20192;-69
2022/08/21 04:53:09;;;;;;;11.07;9.13;;;;;;;19.18;82.29;94368.09;5097507;28;20227;-69
2022/08/21 04:55:37;;;;;;;12.20;8.35;;;;;;;19.15;82.47;94363.38;5098365;28;20200;-69
2022/08/21 04:58:05;;;;;;;8.85;7.93;;;;;;;19.17;82.57;94361.72;5098186;28;20185;-69
2022/08/21 05:00:32;;;;;;;8.77;7.85;;;;;;;19.22;82.31;94357.66;5097228;28;20600;-69
2022/08/21 05:03:00;;;;;;;11.02;8.20;;;;;;;19.27;82.96;94359.94;5097812;28;20192;-69
2022/08/21 05:05:29;;;;;;;7.97;7.18;;;;;;;19.31;82.59;94359.88;5098217;28;20212;-69
2022/08/21 05:07:58;;;;;;;9.40;7.63;;;;;;;19.36;82.79;94367.78;5097395;28;20258;-69
2022/08/21 05:10:25;;;;;;;7.75;6.95;;;;;;;19.37;82.63;94372.16;5097267;28;20207;-69
2022/08/21 05:12:53;;;;;;;7.78;6.63;;;;;;;19.37;81.52;94372.16;5097083;28;20315;-69
2022/08/21 05:15:20;;;;;;;11.07;7.30;;;;;;;19.41;82.03;94375.69;5098216;28;20207;-69
2022/08/21 05:17:47;;;;;;;8.48;6.75;;;;;;;19.41;81.64;94375.69;5097947;28;20478;-68
2022/08/21 05:20:15;;;;;;;7.93;6.60;;;;;;;19.41;82.32;94370.88;5097805;28;20191;-71
2022/08/21 05:22:42;;;;;;;6.72;5.90;;;;;;;19.42;81.40;94369.66;5098205;28;20188;-67
2022/08/21 05:25:11;;;;;;;8.65;6.22;;;;;;;19.42;81.97;94371.66;5098083;28;20261;-67
2022/08/21 05:27:38;;;;;;;7.32;6.10;;;;;;;19.38;82.51;94368.16;5098035;28;20181;-67
2022/08/21 05:30:07;;;;;;;7.38;6.10;;;;;;;19.41;83.05;94378.47;5097905;28;20275;-69
2022/08/21 05:32:35;;;;;;;9.90;6.32;;;;;;;19.40;82.75;94374.13;5097678;28;20288;-68
2022/08/21 05:35:02;;;;;;;7.57;6.30;;;;;;;19.39;82.64;94366.91;5097077;28;20204;-69
2022/08/21 05:37:29;;;;;;;8.13;6.10;;;;;;;19.38;82.54;94359.75;5080141;28;20208;-69
2022/08/21 05:39:56;;;;;;;6.43;5.78;;;;;;;19.41;81.77;94356.91;5097656;28;20245;-69
2022/08/21 05:42:27;;;;;;;6.55;5.85;;;;;;;19.45;82.22;94354.81;5097391;28;20588;-71
2022/08/21 05:44:55;;;;;;;7.82;6.65;;;;;;;19.49;82.64;94360.34;5097702;28;20255;-69
2022/08/21 05:47:22;;;;;;;8.60;7.35;;;;;;;19.51;82.70;94357.94;5095435;28;20616;-69
2022/08/21 05:49:49;;;;;;;10.35;7.78;;;;;;;19.53;82.16;94358.28;5096252;28;20204;-69
2022/08/21 05:52:19;;;;;;;7.68;6.97;;;;;;;19.53;81.80;94357.50;5097620;28;20176;-69
2022/08/21 05:54:46;;;;;;;8.77;7.53;;;;;;;19.55;82.17;94360.66;5096800;28;20640;-69
2022/08/21 05:57:13;;;;;;;8.52;7.65;;;;;;;19.58;82.40;94366.19;5097470;28;20197;-69
2022/08/21 05:59:41;;;;;;;7.65;6.70;;;;;;;19.58;81.61;94365.41;5097341;28;20195;-69
2022/08/21 06:02:09;;;;;;;7.60;6.63;;;;;;;19.57;82.53;94367.41;5097251;28;20535;-69
2022/08/21 06:04:39;;;;;;;11.65;9.35;;;;;;;19.59;82.67;94356.56;5097256;28;20271;-69
2022/08/21 06:07:06;;;;;;;12.48;10.70;;;;;;;19.59;82.55;94362.16;5096576;28;20210;-69
2022/08/21 06:09:33;;;;;;;13.65;10.70;;;;;;;19.62;82.16;94363.31;5097075;28;20184;-69
2022/08/21 06:12:04;;;;;;;13.55;11.35;;;;;;;19.66;82.19;94364.06;5096728;28;20185;-69
2022/08/21 06:14:31;;;;;;;12.75;11.00;;;;;;;19.69;82.55;94361.22;5096371;28;20220;-69
2022/08/21 06:17:04;;;;;;;11.57;9.32;;;;;;;19.72;81.79;94356.78;5096382;28;20196;-69
2022/08/21 06:19:32;;;;;;;12.85;10.00;;;;;;;19.75;81.23;94360.69;5096959;28;20188;-69
2022/08/21 06:21:59;;;;;;;9.85;8.85;;;;;;;19.77;81.21;94367.44;5096560;28;20188;-69
2022/08/21 06:24:27;;;;;;;10.38;9.30;;;;;;;19.81;80.59;94364.59;5096474;28;20600;-69
2022/08/21 06:26:54;;;;;;;11.50;10.30;;;;;;;19.83;80.42;94359.38;5096277;28;20540;-69
2022/08/21 06:29:25;;;;;;;12.65;10.63;;;;;;;19.85;80.49;94352.09;5096624;28;20558;-69
2022/08/21 06:32:12;;;;;;;13.40;10.45;;;;;;;19.85;80.56;94356.91;5096287;28;20242;-69
2022/08/21 06:34:40;;;;;;;10.45;9.43;;;;;;;19.83;80.73;94362.16;5096701;28;20209;-69
2022/08/21 06:37:07;;;;;;;12.85;10.00;;;;;;;19.81;80.80;94359.00;5095268;28;20204;-69
2022/08/21 06:39:34;;;;;;;11.38;9.50;;;;;;;19.81;80.61;94359.00;5096719;28;20180;-69
2022/08/21 06:42:02;;;;;;;11.45;9.63;;;;;;;19.81;80.53;94359.00;5095216;28;20534;-69
2022/08/21 06:44:31;;;;;;;12.82;9.30;;;;;;;19.78;80.60;94368.25;5096160;28;20228;-68
2022/08/21 06:46:58;;;;;;;11.27;9.00;;;;;;;19.75;80.71;94363.50;5096725;28;20193;-69
2022/08/21 06:49:26;;;;;;;12.15;8.30;;;;;;;19.75;79.93;94355.88;5096104;28;20585;-69
2022/08/21 06:51:53;;;;;;;10.20;8.75;;;;;;;19.75;80.31;94361.47;5095370;28;20204;-68
2022/08/21 06:54:20;;;;;;;11.63;10.35;;;;;;;19.81;80.57;94359.78;5095991;28;20220;-68
2022/08/21 06:56:47;;;;;;;10.55;9.45;;;;;;;19.89;80.90;94354.81;5095507;28;20500;-68
2022/08/21 06:59:13;;;;;;;11.38;9.85;;;;;;;19.94;80.90;94360.72;5095220;28;20191;-68
2022/08/21 07:01:41;;;;;;;10.32;9.23;;;;;;;19.95;80.24;94365.09;5096242;28;20184;-68
2022/08/21 07:04:08;;;;;;;10.40;9.40;;;;;;;19.99;80.55;94362.22;5095273;28;20192;-69
2022/08/21 07:06:37;;;;;;;9.25;7.85;;;;;;;20.02;80.60;94369.75;5094833;28;20199;-69
2022/08/21 07:09:04;;;;;;;9.80;8.05;;;;;;;20.03;79.96;94365.72;5095202;28;20199;-69
2022/08/21 07:11:31;;;;;;;8.73;7.70;;;;;;;20.04;79.92;94372.91;5095633;28;20200;-69
2022/08/21 07:13:58;;;;;;;10.65;7.57;;;;;;;20.06;80.07;94370.47;5096050;28;20204;-69
2022/08/21 07:16:25;;;;;;;8.85;7.38;;;;;;;20.07;79.76;94369.25;5095072;28;20204;-69
2022/08/21 07:18:52;;;;;;;8.60;7.80;;;;;;;20.09;79.80;94375.22;5095153;28;20195;-69
2022/08/21 07:21:19;;;;;;;9.32;7.85;;;;;;;20.10;79.09;94368.38;5095176;28;20204;-69
2022/08/21 07:23:50;;;;;;;7.88;7.07;;;;;;;20.14;79.17;94371.13;5094868;28;20281;-69
2022/08/21 07:26:20;;;;;;;7.28;6.57;;;;;;;20.17;79.25;94381.44;5094960;28;20197;-69
2022/08/21 07:28:48;;;;;;;8.32;7.53;;;;;;;20.19;78.86;94379.03;5095442;28;20192;-69
2022/08/21 07:31:23;;;;;;;9.23;8.07;;;;;;;20.23;78.82;94371.34;5094951;28;20200;-69
2022/08/21 07:33:50;;;;;;;9.05;7.78;;;;;;;20.25;78.58;94368.09;5095442;28;20218;-69
2022/08/21 07:36:18;;;;;;;8.57;7.05;;;;;;;20.26;78.01;94356.47;5096031;28;20188;-69
2022/08/21 07:38:47;;;;;;;8.38;7.35;;;;;;;20.29;78.28;94355.59;5095285;28;20596;-69
2022/08/21 07:41:23;;;;;;;9.15;7.68;;;;;;;20.30;78.46;94345.16;5094446;28;20544;-69
2022/08/21 07:43:52;;;;;;;10.23;8.10;;;;;;;20.32;78.56;94351.91;5094524;28;20200;-69
2022/08/21 07:46:19;;;;;;;9.70;8.55;;;;;;;20.39;78.56;94348.97;5094664;28;20197;-69
2022/08/21 07:48:46;;;;;;;10.05;8.15;;;;;;;20.47;78.50;94346.78;5095016;28;20283;-69
2022/08/21 07:51:15;;;;;;;11.90;7.40;;;;;;;20.51;77.33;94344.72;5095533;28;20192;-69
2022/08/21 07:53:43;;;;;;;10.23;8.10;;;;;;;20.55;77.25;94341.84;5095004;28;20196;-69
2022/08/21 07:56:10;;;;;;;7.97;7.28;;;;;;;20.59;76.91;94342.56;5094696;28;20196;-69
2022/08/21 07:58:39;;;;;;;8.65;7.63;;;;;;;20.67;76.72;94341.97;5094400;28;20226;-69
2022/08/21 08:01:06;;;;;;;8.20;7.47;;;;;;;20.74;76.20;94345.84;5094257;28;20204;-69
2022/08/21 08:03:33;;;;;;;10.77;7.70;;;;;;;20.79;75.67;94346.09;5093989;28;20189;-69
2022/08/21 08:06:00;;;;;;;7.85;6.97;;;;;;;20.81;75.41;94345.66;5094292;28;20199;-69
2022/08/21 08:08:27;;;;;;;8.45;7.55;;;;;;;20.83;75.79;94358.00;5094380;28;20207;-69
2022/08/21 08:10:54;;;;;;;8.70;7.70;;;;;;;20.85;75.51;94349.94;5097792;28;20493;-69
2022/08/21 08:13:21;;;;;;;9.85;7.35;;;;;;;20.88;76.17;94349.09;5098173;28;20603;-69
2022/08/21 08:15:49;;;;;;;8.18;7.18;;;;;;;20.91;75.70;94344.59;5099355;28;20204;-69
2022/08/21 08:18:16;;;;;;;9.27;7.28;;;;;;;20.95;75.64;94339.69;5099302;28;20187;-69
2022/08/21 08:20:45;;;;;;;7.22;6.53;;;;;;;21.06;75.57;94342.22;5099328;28;20597;-69
2022/08/21 08:23:12;;;;;;;9.32;7.70;;;;;;;21.16;75.73;94338.38;5098862;28;20196;-68
2022/08/21 08:25:39;;;;;;;10.23;8.13;;;;;;;21.28;75.99;94342.47;5098548;28;20200;-68
2022/08/21 08:28:06;;;;;;;8.43;7.07;;;;;;;21.39;76.12;94341.03;5099184;28;20188;-68
2022/08/21 08:30:34;;;;;;;8.38;7.55;;;;;;;21.50;76.00;94345.56;5098763;28;20497;-69
2022/08/21 08:33:03;;;;;;;9.65;7.97;;;;;;;21.54;73.62;94337.84;5099028;28;20191;-69
2022/08/21 08:35:30;;;;;;;8.40;7.60;;;;;;;21.56;73.57;94338.97;5098910;28;20212;-69
2022/08/21 08:37:57;;;;;;;9.02;8.13;;;;;;;21.66;72.92;94342.72;5099436;28;20196;-70
2022/08/21 08:40:30;;;;;;;12.02;9.25;;;;;;;21.60;72.74;94339.66;5098121;28;20196;-69
2022/08/21 08:42:57;;;;;;;8.63;7.40;;;;;;;21.67;73.29;94349.13;5098613;28;20230;-70
2022/08/21 08:45:26;;;;;;;10.50;9.40;;;;;;;21.73;72.91;94348.13;5098410;28;20224;-70
2022/08/21 08:47:57;;;;;;;9.23;8.32;;;;;;;21.70;72.13;94354.63;5098513;28;20232;-69
2022/08/21 08:50:30;;;;;;;8.95;7.63;;;;;;;21.73;71.93;94341.75;5098699;28;20188;-69
2022/08/21 08:53:01;;;;;;;9.75;8.75;;;;;;;21.73;71.69;94341.75;5097986;28;20235;-69
2022/08/21 08:55:31;;;;;;;8.50;7.43;;;;;;;21.68;71.95;94334.66;5098775;28;20211;-69
2022/08/21 08:57:59;;;;;;;9.77;8.63;;;;;;;21.68;71.79;94333.84;5097793;28;20220;-70
2022/08/21 09:00:26;;;;;;;10.13;8.20;;;;;;;21.67;72.15;94333.06;5098721;28;20204;-70
2022/08/21 09:02:58;;;;;;;9.88;8.15;;;;;;;21.69;71.82;94324.22;5098134;28;20488;-72
2022/08/21 09:05:28;;;;;;;11.95;7.65;;;;;;;21.77;71.61;94322.78;5098344;28;20185;-71
2022/08/21 09:08:08;;;;;;;9.45;7.95;;;;;;;21.91;72.03;94322.38;5098265;28;20241;-71
2022/08/21 09:10:43;;;;;;;9.23;7.78;;;;;;;21.97;71.90;94317.00;5097435;28;20200;-70
2022/08/21 09:13:17;;;;;;;10.05;7.15;;;;;;;22.00;71.21;94314.09;5097211;28;20550;-71
2022/08/21 09:15:50;;;;;;;8.27;6.97;;;;;;;22.15;71.71;94310.91;5098293;28;20216;-70
2022/08/21 09:18:28;;;;;;;8.10;6.40;;;;;;;22.30;70.55;94312.06;5098053;28;20196;-71
2022/08/21 09:21:09;;;;;;;6.97;5.97;;;;;;;22.40;67.65;94316.56;5096664;28;20201;-71
2022/08/21 09:23:45;;;;;;;9.00;5.82;;;;;;;22.43;68.54;94307.22;5098105;28;20192;-71
2022/08/21 09:26:15;;;;;;;7.72;6.30;;;;;;;22.47;67.39;94305.09;5097338;28;20191;-71
2022/08/21 09:28:47;;;;;;;8.18;6.35;;;;;;;22.43;65.89;94301.63;5097968;28;20189;-71
2022/08/21 09:31:22;;;;;;;6.88;6.13;;;;;;;22.37;63.97;94297.81;5097690;28;20222;-71
2022/08/21 09:33:49;;;;;;;7.05;5.85;;;;;;;22.29;63.43;94297.22;5097551;28;20203;-71
2022/08/21 09:36:25;;;;;;;7.45;5.60;;;;;;;22.26;65.36;94288.88;5097767;28;20200;-71
2022/08/21 09:38:54;;;;;;;6.10;5.47;;;;;;;22.31;64.91;94288.34;5097267;28;20207;-71
2022/08/21 09:41:30;;;;;;;6.45;5.70;;;;;;;22.41;65.72;94286.47;5096488;28;20681;-71
2022/08/21 09:43:57;;;;;;;7.00;6.00;;;;;;;22.44;65.84;94285.53;5097007;28;20234;-71
2022/08/21 09:46:25;;;;;;;6.15;5.55;;;;;;;22.44;65.48;94280.72;5096897;28;20191;-71
2022/08/21 09:48:54;;;;;;;6.05;5.28;;;;;;;22.41;65.90;94283.66;5097695;28;20188;-71
2022/08/21 09:51:24;;;;;;;6.72;5.95;;;;;;;22.30;65.44;94287.56;5096772;28;20224;-70
2022/08/21 09:53:55;;;;;;;6.93;5.93;;;;;;;22.26;65.08;94284.09;5097231;28;20216;-70
2022/08/21 09:59:20;;;;;;;7.75;6.18;;;;;;;22.20;65.94;94287.91;5097110;28;20596;-70
2022/08/21 10:01:50;;;;;;;6.97;6.05;;;;;;;22.17;65.75;94278.31;5096053;28;20196;-70
2022/08/21 10:04:22;;;;;;;5.60;5.03;;;;;;;22.16;66.06;94275.97;5097248;28;20196;-70
2022/08/21 10:06:50;;;;;;;7.50;6.13;;;;;;;22.19;67.04;94269.47;5096529;28;20283;-70
2022/08/21 10:09:19;;;;;;;7.47;5.97;;;;;;;22.23;67.36;94272.97;5097207;28;20267;-70
2022/08/21 10:11:52;;;;;;;5.85;5.15;;;;;;;22.35;66.87;94267.34;5096974;28;20173;-70
2022/08/21 10:14:31;;;;;;;6.35;5.68;;;;;;;22.56;67.38;94265.88;5096982;28;20202;-70
2022/08/21 10:17:04;;;;;;;6.20;5.53;;;;;;;22.74;66.66;94267.34;5097110;28;20196;-70
2022/08/21 10:19:35;;;;;;;6.53;5.85;;;;;;;22.84;66.13;94263.41;5097286;28;20279;-70
2022/08/21 10:22:13;;;;;;;6.00;5.47;;;;;;;22.86;65.77;94260.13;5095983;28;20533;-70
2022/08/21 10:24:47;;;;;;;6.85;5.50;;;;;;;22.90;65.42;94258.75;5097019;28;20184;-70
2022/08/21 10:27:19;;;;;;;6.78;6.05;;;;;;;22.96;65.37;94256.19;5096838;28;20188;-70
2022/08/21 10:29:54;;;;;;;9.63;5.80;;;;;;;23.13;64.69;94254.81;5095774;28;20204;-69
2022/08/21 10:32:28;;;;;;;6.82;5.50;;;;;;;23.12;64.12;94246.81;5095483;28;20207;-70
2022/08/21 10:35:01;;;;;;;7.80;5.85;;;;;;;23.06;64.62;94250.22;5095628;28;20273;-70
2022/08/21 10:37:35;;;;;;;6.65;6.03;;;;;;;22.98;63.38;94254.50;5095635;28;20211;-69
2022/08/21 10:40:12;;;;;;;7.20;5.78;;;;;;;22.95;65.36;94249.00;5096550;28;20180;-69
2022/08/21 10:42:48;;;;;;;6.28;5.68;;;;;;;22.96;63.88;94250.59;5096593;28;20643;-69
2022/08/21 10:45:26;;;;;;;5.75;5.22;;;;;;;22.99;64.76;94235.63;5095819;28;20228;-70
2022/08/21 10:47:55;;;;;;;6.38;5.25;;;;;;;23.15;64.43;94240.28;5096076;28;20189;-69
2022/08/21 10:50:31;;;;;;;6.13;5.38;;;;;;;23.37;65.20;94229.06;5096066;28;20196;-69
2022/08/21 10:53:23;;;;;;;7.22;5.78;;;;;;;23.54;61.87;94233.28;5095718;28;20203;-69
2022/08/21 10:55:53;;;;;;;5.70;5.13;;;;;;;23.63;63.59;94226.94;5095227;28;20208;-69
2022/08/21 10:58:28;;;;;;;7.75;5.35;;;;;;;23.76;63.71;94222.06;5096011;28;20199;-70
2022/08/21 11:00:59;;;;;;;7.05;5.00;;;;;;;23.90;61.91;94215.09;5095709;28;20207;-70
2022/08/21 11:03:32;;;;;;;6.03;5.07;;;;;;;24.00;61.82;94211.88;5095914;28;20180;-70
2022/08/21 11:06:03;;;;;;;6.97;5.38;;;;;;;24.12;60.95;94212.25;5095306;28;20199;-70
2022/08/21 11:08:37;;;;;;;5.75;5.07;;;;;;;24.20;60.93;94203.06;5096034;28;20204;-70
2022/08/21 11:11:06;;;;;;;7.57;5.90;;;;;;;24.28;59.64;94217.63;5095376;28;20211;-69
2022/08/21 11:13:42;;;;;;;7.03;5.30;;;;;;;24.32;60.54;94201.38;5095190;28;20200;-70
2022/08/21 11:16:17;;;;;;;6.82;6.13;;;;;;;24.35;59.44;94189.19;5095047;28;20243;-69
2022/08/21 11:18:46;;;;;;;8.00;5.38;;;;;;;24.27;60.38;94196.34;5095522;28;20192;-70
2022/08/21 11:21:33;;;;;;;8.23;6.00;;;;;;;24.37;62.26;94189.50;5094958;28;20192;-70
2022/08/21 11:24:07;;;;;;;6.13;5.63;;;;;;;24.44;60.41;94194.91;5095736;28;20177;-69
2022/08/21 11:26:40;;;;;;;6.20;5.30;;;;;;;24.48;60.52;94195.53;5095439;28;20187;-69
2022/08/21 11:29:13;;;;;;;7.07;6.05;;;;;;;24.47;59.51;94195.97;5095270;28;20220;-70
2022/08/21 11:31:55;;;;;;;6.22;5.15;;;;;;;24.46;60.17;94186.75;5095692;28;20188;-70
2022/08/21 11:34:33;;;;;;;6.25;5.40;;;;;;;24.57;61.48;94185.53;5095384;28;20267;-70
2022/08/21 11:37:04;;;;;;;6.43;5.78;;;;;;;24.66;61.33;94191.22;5095609;28;20306;-70
2022/08/21 11:39:38;;;;;;;6.90;5.25;;;;;;;24.72;59.89;94189.31;5095285;28;20193;-69
2022/08/21 11:42:11;;;;;;;6.25;5.40;;;;;;;24.79;59.63;94180.56;5094632;28;20196;-70
2022/08/21 11:44:50;;;;;;;6.20;5.60;;;;;;;24.80;59.09;94189.81;5094085;28;20240;-70